Time;durP1;ratioP1;P1;durP2;ratioP2;P2;SDS_P1;SDS_P2;PMS_P1;PMS_P2;Temp;Humidity;BMP_temperature;BMP_pressure;BME280_temperature;BME280_humidity;BME280_pressure;Samples;Min_cycle;Max_cycle;Signal;HPM_P1;HPM_P2
2023/04/15 00:00:38;;;;;;;3.67;1.90;;;;;;;8.54;100.00;99936.94;5132682;28;20033;-72
2023/04/15 00:03:08;;;;;;;3.95;2.13;;;;;;;8.59;100.00;99928.00;5132010;28;20449;-74
2023/04/15 00:05:39;;;;;;;3.85;2.00;;;;;;;8.65;100.00;99927.78;5145333;28;20018;-72
2023/04/15 00:08:09;;;;;;;5.28;1.90;;;;;;;8.63;100.00;99920.94;5148007;28;20034;-72
2023/04/15 00:10:39;;;;;;;5.38;1.92;;;;;;;8.54;100.00;99919.53;5150097;28;20014;-72
2023/04/15 00:13:10;;;;;;;4.25;2.20;;;;;;;8.64;100.00;99914.81;5151532;28;20034;-74
2023/04/15 00:15:41;;;;;;;4.47;2.30;;;;;;;8.56;100.00;99915.09;5149866;28;20528;-72
2023/04/15 00:18:12;;;;;;;3.85;2.05;;;;;;;8.50;100.00;99914.50;5132498;28;20311;-72
2023/04/15 00:20:42;;;;;;;3.53;2.10;;;;;;;8.43;100.00;99913.91;5132978;28;20053;-74
2023/04/15 00:23:12;;;;;;;3.92;2.35;;;;;;;8.47;100.00;99905.06;5146588;28;20034;-70
2023/04/15 00:25:43;;;;;;;6.53;2.38;;;;;;;8.43;100.00;99907.81;5148973;28;20377;-72
2023/04/15 00:28:13;;;;;;;3.80;2.15;;;;;;;8.61;100.00;99899.31;5149032;28;20019;-71
2023/04/15 00:30:44;;;;;;;4.38;2.58;;;;;;;8.56;100.00;99899.47;5146585;28;20026;-74
2023/04/15 00:33:18;;;;;;;3.05;2.20;;;;;;;8.63;100.00;99900.97;5140828;28;20506;-73
2023/04/15 00:35:48;;;;;;;6.65;2.60;;;;;;;8.69;100.00;99902.50;5145136;28;20300;-71
2023/04/15 00:38:18;;;;;;;4.03;2.70;;;;;;;8.55;100.00;99899.56;5128529;28;20041;-74
2023/04/15 00:40:49;;;;;;;4.03;2.53;;;;;;;8.56;100.00;99901.25;5144944;28;20077;-71
2023/04/15 00:43:19;;;;;;;6.38;2.50;;;;;;;8.48;100.00;99906.75;5148431;28;20023;-71
2023/04/15 00:45:52;;;;;;;4.50;2.53;;;;;;;8.51;100.00;99895.34;5146273;28;20034;-72
2023/04/15 00:48:23;;;;;;;4.65;2.22;;;;;;;8.55;100.00;99895.19;5143786;28;20081;-72
2023/04/15 00:50:53;;;;;;;5.65;2.83;;;;;;;8.53;100.00;99899.59;5130246;28;20483;-70
2023/04/15 00:53:24;;;;;;;5.97;2.72;;;;;;;8.49;100.00;99891.97;5133538;28;20034;-74
2023/04/15 00:55:54;;;;;;;5.60;2.95;;;;;;;8.57;100.00;99893.38;5145794;28;20451;-71
2023/04/15 00:58:26;;;;;;;5.50;2.97;;;;;;;8.55;100.00;99884.78;5147875;28;20086;-72
2023/04/15 01:00:58;;;;;;;5.05;2.50;;;;;;;8.45;100.00;99888.66;5148642;28;20671;-72
2023/04/15 01:03:29;;;;;;;6.55;2.75;;;;;;;8.40;100.00;99887.94;5147116;28;20032;-73
2023/04/15 01:06:00;;;;;;;6.75;2.88;;;;;;;8.43;100.00;99897.41;5145740;28;20420;-73
2023/04/15 01:08:31;;;;;;;6.22;2.95;;;;;;;8.47;100.00;99896.38;5146758;28;20089;-73
2023/04/15 01:11:02;;;;;;;6.97;3.20;;;;;;;8.39;100.00;99891.47;5163196;23;20039;-73
2023/04/15 01:13:33;;;;;;;6.32;3.20;;;;;;;8.45;100.00;99886.03;5130702;28;20056;-74
2023/04/15 01:16:04;;;;;;;6.50;3.28;;;;;;;8.51;100.00;99885.81;5145927;28;20027;-74
2023/04/15 01:18:36;;;;;;;6.50;2.75;;;;;;;8.49;100.00;99884.16;5149665;28;20034;-72
2023/04/15 01:21:07;;;;;;;7.20;3.08;;;;;;;8.41;100.00;99881.00;5129705;28;20108;-73
2023/04/15 01:23:38;;;;;;;6.60;3.22;;;;;;;8.29;100.00;99877.13;5149802;28;20022;-73
2023/04/15 01:26:09;;;;;;;6.43;3.40;;;;;;;8.37;100.00;99872.44;5148869;28;20054;-73
2023/04/15 01:28:39;;;;;;;7.35;3.78;;;;;;;8.34;100.00;99875.19;5147001;28;20112;-73
2023/04/15 01:31:12;;;;;;;6.45;3.45;;;;;;;8.32;100.00;99870.91;5147278;28;20062;-73
2023/04/15 01:33:42;;;;;;;6.72;3.70;;;;;;;8.30;100.00;99873.59;5144471;28;20513;-74
2023/04/15 01:36:13;;;;;;;6.70;3.60;;;;;;;8.25;100.00;99877.28;5148711;28;20046;-73
2023/04/15 01:38:43;;;;;;;8.65;3.70;;;;;;;8.23;100.00;99872.13;5149098;28;20102;-73
2023/04/15 01:41:13;;;;;;;8.30;4.25;;;;;;;8.24;100.00;99868.59;5143902;28;20508;-73
2023/04/15 01:43:44;;;;;;;9.15;4.63;;;;;;;8.23;100.00;99863.47;5149849;28;20038;-73
2023/04/15 01:46:15;;;;;;;7.97;4.15;;;;;;;8.14;100.00;99854.22;5146051;28;20030;-72
2023/04/15 01:48:46;;;;;;;8.70;4.60;;;;;;;8.21;100.00;99854.88;5148753;28;20033;-72
2023/04/15 01:51:16;;;;;;;7.88;4.35;;;;;;;8.22;100.00;99849.59;5147422;28;20274;-73
2023/04/15 01:53:47;;;;;;;9.18;4.93;;;;;;;8.24;100.00;99850.38;5148474;28;20034;-75
2023/04/15 01:56:17;;;;;;;8.68;4.82;;;;;;;8.07;100.00;99846.69;5145350;28;20041;-74
2023/04/15 01:58:48;;;;;;;8.02;4.55;;;;;;;8.19;100.00;99847.13;5146202;28;20497;-71
2023/04/15 02:01:18;;;;;;;9.70;4.90;;;;;;;8.18;100.00;99845.41;5145146;28;20058;-73
2023/04/15 02:03:49;;;;;;;9.18;4.35;;;;;;;8.11;100.00;99840.47;5152097;28;20403;-72
2023/04/15 02:06:19;;;;;;;6.72;3.83;;;;;;;8.13;100.00;99838.66;5148293;28;20041;-74
2023/04/15 02:08:50;;;;;;;8.63;4.55;;;;;;;8.20;100.00;99842.78;5148027;28;20068;-72
2023/04/15 02:11:21;;;;;;;9.73;4.93;;;;;;;8.13;100.00;99846.47;5144494;28;20034;-73
2023/04/15 02:13:52;;;;;;;8.13;4.63;;;;;;;8.22;100.00;99844.41;5146389;28;20038;-73
2023/04/15 02:16:22;;;;;;;7.93;4.68;;;;;;;8.02;100.00;99843.44;5144700;28;20081;-73
2023/04/15 02:18:53;;;;;;;9.52;4.80;;;;;;;8.19;100.00;99844.50;5146694;28;20057;-73
2023/04/15 02:21:25;;;;;;;9.23;4.65;;;;;;;8.21;100.00;99839.28;5148991;28;20054;-73
2023/04/15 02:23:56;;;;;;;9.25;5.03;;;;;;;8.09;100.00;99839.69;5149549;28;20506;-73
2023/04/15 02:26:26;;;;;;;9.63;4.78;;;;;;;8.16;100.00;99847.22;5132232;28;20038;-74
2023/04/15 02:28:56;;;;;;;10.07;4.95;;;;;;;8.02;100.00;99849.47;5152693;28;20290;-73
2023/04/15 02:31:27;;;;;;;10.18;4.57;;;;;;;8.12;100.00;99845.63;5153170;28;20077;-73
2023/04/15 02:33:57;;;;;;;10.05;5.05;;;;;;;8.22;100.00;99856.56;5146859;28;20496;-73
2023/04/15 02:36:28;;;;;;;9.63;4.40;;;;;;;8.14;100.00;99851.63;5154519;28;20152;-73
2023/04/15 02:38:59;;;;;;;8.32;4.47;;;;;;;8.11;100.00;99861.28;5151274;28;20243;-73
2023/04/15 02:41:29;;;;;;;8.10;4.50;;;;;;;8.09;100.00;99853.56;5140157;28;20027;-73
2023/04/15 02:44:00;;;;;;;9.30;4.30;;;;;;;8.05;100.00;99859.75;5153604;28;20495;-73
2023/04/15 02:46:30;;;;;;;8.43;4.57;;;;;;;8.13;100.00;99860.34;5154204;28;20088;-73
2023/04/15 02:49:02;;;;;;;9.48;4.53;;;;;;;8.11;100.00;99851.75;5154468;28;20672;-74
2023/04/15 02:51:32;;;;;;;8.07;4.45;;;;;;;8.02;100.00;99857.28;5159250;28;20053;-73
2023/04/15 02:54:02;;;;;;;8.88;4.60;;;;;;;8.06;100.00;99855.41;5157344;28;20030;-70
2023/04/15 02:56:33;;;;;;;10.95;4.93;;;;;;;7.99;100.00;99856.53;5155755;28;20027;-74
2023/04/15 02:59:03;;;;;;;9.95;5.07;;;;;;;8.03;100.00;99861.56;5150808;28;20022;-71
2023/04/15 03:01:34;;;;;;;8.75;4.55;;;;;;;7.97;100.00;99867.00;5156219;28;20504;-73
2023/04/15 03:04:04;;;;;;;9.35;4.88;;;;;;;7.95;100.00;99858.41;5152746;28;20038;-71
2023/04/15 03:06:34;;;;;;;10.43;5.60;;;;;;;7.96;100.00;99852.31;5156015;28;20358;-74
2023/04/15 03:09:05;;;;;;;10.30;4.88;;;;;;;8.02;100.00;99862.47;5151705;28;20030;-72
2023/04/15 03:11:39;;;;;;;11.88;5.97;;;;;;;8.04;100.00;99858.06;5157925;28;20027;-73
2023/04/15 03:14:10;;;;;;;10.38;5.20;;;;;;;7.98;100.00;99858.28;5151975;28;20100;-73
2023/04/15 03:16:40;;;;;;;10.57;5.55;;;;;;;8.00;100.00;99858.22;5155064;28;20027;-72
2023/04/15 03:19:10;;;;;;;13.63;5.60;;;;;;;7.99;100.00;99853.94;5159114;28;20056;-73
2023/04/15 03:21:41;;;;;;;12.90;5.95;;;;;;;8.05;100.00;99853.72;5155697;28;20033;-72
2023/04/15 03:24:11;;;;;;;12.65;6.00;;;;;;;8.03;100.00;99851.16;5154568;28;20504;-73
2023/04/15 03:26:41;;;;;;;11.38;5.20;;;;;;;8.00;100.00;99845.22;5153789;28;20058;-72
2023/04/15 03:29:12;;;;;;;11.07;5.68;;;;;;;7.96;100.00;99839.31;5154712;28;20039;-73
2023/04/15 03:31:42;;;;;;;12.23;6.38;;;;;;;8.02;100.00;99846.03;5152037;28;20432;-73
2023/04/15 03:34:12;;;;;;;11.30;5.90;;;;;;;8.08;100.00;99844.03;5155600;28;20125;-73
2023/04/15 03:36:42;;;;;;;11.48;5.75;;;;;;;8.01;100.00;99839.13;5153686;28;20081;-72
2023/04/15 03:39:13;;;;;;;11.25;5.85;;;;;;;8.01;100.00;99836.53;5154662;28;20033;-73
2023/04/15 03:41:43;;;;;;;11.85;6.13;;;;;;;8.00;100.00;99842.59;5151267;28;20064;-72
2023/04/15 03:44:13;;;;;;;12.38;5.60;;;;;;;7.85;100.00;99841.44;5145467;28;20027;-73
2023/04/15 03:46:43;;;;;;;11.07;6.03;;;;;;;7.92;100.00;99836.84;5132234;28;20117;-73
2023/04/15 03:49:14;;;;;;;12.70;6.63;;;;;;;7.91;100.00;99843.81;5149006;28;20030;-73
2023/04/15 03:51:44;;;;;;;11.68;6.22;;;;;;;7.93;100.00;99836.81;5152739;28;20038;-73
2023/04/15 03:54:15;;;;;;;13.93;5.95;;;;;;;8.04;100.00;99833.81;5152624;28;20483;-72
2023/04/15 03:56:45;;;;;;;9.73;5.45;;;;;;;7.95;100.00;99847.16;5151701;28;20105;-73
2023/04/15 03:59:15;;;;;;;11.98;5.65;;;;;;;7.92;100.00;99847.25;5149831;28;20027;-71
2023/04/15 04:01:46;;;;;;;12.23;6.00;;;;;;;7.98;100.00;99845.28;5146196;28;20030;-71
2023/04/15 04:04:16;;;;;;;13.25;6.65;;;;;;;8.01;100.00;99839.97;5150129;28;20069;-73
2023/04/15 04:06:46;;;;;;;12.57;6.60;;;;;;;8.07;100.00;99833.69;5146799;28;20458;-73
2023/04/15 04:09:16;;;;;;;12.43;6.10;;;;;;;8.07;100.00;99836.28;5145914;28;20034;-71
2023/04/15 04:11:47;;;;;;;9.75;5.00;;;;;;;7.97;100.00;99835.78;5149036;28;20026;-73
2023/04/15 04:14:17;;;;;;;11.93;5.88;;;;;;;8.01;100.00;99828.72;5149290;28;20026;-73
2023/04/15 04:16:47;;;;;;;10.60;5.60;;;;;;;7.91;100.00;99835.16;5151539;28;20026;-72
2023/04/15 04:19:18;;;;;;;10.32;5.10;;;;;;;7.97;100.00;99834.94;5146372;28;20066;-71
2023/04/15 04:21:49;;;;;;;10.52;5.43;;;;;;;7.97;100.00;99835.78;5147808;28;20085;-73
2023/04/15 04:24:20;;;;;;;10.88;5.22;;;;;;;7.85;100.00;99844.03;5145790;28;20026;-73
2023/04/15 04:26:50;;;;;;;9.98;5.15;;;;;;;7.96;100.00;99839.31;5147230;28;20394;-73
2023/04/15 04:29:20;;;;;;;8.85;4.70;;;;;;;7.94;100.00;99841.09;5151644;28;20058;-71
2023/04/15 04:31:51;;;;;;;9.80;5.25;;;;;;;7.91;100.00;99842.97;5136644;28;20011;-72
2023/04/15 04:34:21;;;;;;;9.82;5.18;;;;;;;7.95;100.00;99849.75;5154654;28;20109;-72
2023/04/15 04:36:51;;;;;;;9.48;4.88;;;;;;;7.95;100.00;99837.59;5151986;28;20504;-73
2023/04/15 04:39:22;;;;;;;9.63;5.22;;;;;;;7.99;100.00;99840.91;5149810;28;20034;-72
2023/04/15 04:41:52;;;;;;;7.70;4.68;;;;;;;8.05;100.00;99832.91;5154834;28;20041;-73
2023/04/15 04:44:22;;;;;;;11.27;5.25;;;;;;;8.02;100.00;99835.63;5150677;28;20026;-71
2023/04/15 04:46:53;;;;;;;10.98;5.53;;;;;;;8.08;100.00;99825.81;5151411;28;20436;-72
2023/04/15 04:49:23;;;;;;;11.63;5.65;;;;;;;7.98;100.00;99826.22;5148501;28;20444;-71
2023/04/15 04:51:53;;;;;;;11.30;5.47;;;;;;;8.00;100.00;99822.66;5134635;28;20045;-71
2023/04/15 04:54:24;;;;;;;10.68;5.60;;;;;;;7.92;100.00;99816.03;5154680;28;20105;-73
2023/04/15 04:56:54;;;;;;;10.07;5.40;;;;;;;7.91;100.00;99819.56;5147277;28;20030;-72
2023/04/15 04:59:25;;;;;;;10.93;5.70;;;;;;;7.95;100.00;99811.59;5147749;28;20046;-72
2023/04/15 05:01:55;;;;;;;10.25;5.18;;;;;;;7.93;100.00;99813.41;5152255;28;20035;-73
2023/04/15 05:04:26;;;;;;;10.85;5.05;;;;;;;7.93;100.00;99813.41;5152000;28;20027;-73
2023/04/15 05:06:57;;;;;;;10.60;5.07;;;;;;;7.90;100.00;99816.09;5147787;28;20279;-73
2023/04/15 05:09:28;;;;;;;11.77;5.55;;;;;;;7.91;100.00;99817.78;5137588;28;20135;-73
2023/04/15 05:11:59;;;;;;;10.43;5.40;;;;;;;7.90;100.00;99808.28;5150662;28;20662;-72
2023/04/15 05:14:29;;;;;;;12.25;4.93;;;;;;;7.93;100.00;99810.81;5145820;28;20027;-73
2023/04/15 05:17:00;;;;;;;9.32;4.85;;;;;;;7.98;100.00;99802.81;5152165;28;20029;-73
2023/04/15 05:19:30;;;;;;;10.13;5.32;;;;;;;7.88;100.00;99807.50;5146384;28;21272;-72
2023/04/15 05:22:00;;;;;;;9.13;4.82;;;;;;;7.91;100.00;99815.19;5153536;28;20376;-73
2023/04/15 05:24:31;;;;;;;11.27;4.93;;;;;;;7.86;100.00;99816.28;5146269;28;20122;-74
2023/04/15 05:27:01;;;;;;;10.27;5.32;;;;;;;7.91;100.00;99819.56;5145747;28;20126;-73
2023/04/15 05:29:31;;;;;;;10.75;5.13;;;;;;;7.89;100.00;99822.19;5149770;28;20526;-73
2023/04/15 05:32:02;;;;;;;10.23;4.97;;;;;;;7.91;100.00;99820.38;5151263;28;20022;-73
2023/04/15 05:34:32;;;;;;;10.45;5.43;;;;;;;7.93;100.00;99816.00;5151965;28;20073;-71
2023/04/15 05:37:02;;;;;;;9.02;4.93;;;;;;;7.90;100.00;99823.88;5151961;28;20105;-73
2023/04/15 05:39:33;;;;;;;9.10;5.47;;;;;;;7.92;100.00;99832.53;5138072;28;20455;-73
2023/04/15 05:42:04;;;;;;;9.80;5.07;;;;;;;7.91;100.00;99835.16;5151093;28;20023;-73
2023/04/15 05:44:35;;;;;;;10.48;5.05;;;;;;;7.89;100.00;99837.81;5157452;28;20049;-72
2023/04/15 05:47:06;;;;;;;10.07;5.03;;;;;;;7.86;100.00;99832.72;5147179;28;20026;-73
2023/04/15 05:49:37;;;;;;;10.50;4.85;;;;;;;7.96;100.00;99834.09;5135850;28;20113;-72
2023/04/15 05:52:07;;;;;;;9.55;5.07;;;;;;;8.04;100.00;99832.03;5138691;28;20568;-73
2023/04/15 05:54:37;;;;;;;9.73;5.00;;;;;;;8.06;100.00;99838.03;5143560;28;20113;-73
2023/04/15 05:57:08;;;;;;;8.73;4.80;;;;;;;8.07;100.00;99838.91;5149435;28;20026;-72
2023/04/15 05:59:38;;;;;;;13.15;4.88;;;;;;;7.96;100.00;99841.91;5152156;28;20373;-71
2023/04/15 06:02:09;;;;;;;9.15;4.43;;;;;;;7.97;100.00;99848.78;5153479;28;20514;-71
2023/04/15 06:04:39;;;;;;;8.57;4.57;;;;;;;8.07;100.00;99850.13;5150842;28;20432;-72
2023/04/15 06:07:10;;;;;;;7.97;4.50;;;;;;;8.05;100.00;99832.91;5147359;28;20026;-71
2023/04/15 06:09:40;;;;;;;8.60;4.47;;;;;;;8.07;100.00;99831.91;5146132;28;20121;-73
2023/04/15 06:12:10;;;;;;;8.43;4.38;;;;;;;8.00;100.00;99846.06;5152159;28;20026;-72
2023/04/15 06:14:41;;;;;;;7.30;3.97;;;;;;;8.11;100.00;99843.94;5145900;28;20077;-73
2023/04/15 06:17:13;;;;;;;7.68;3.72;;;;;;;8.05;100.00;99853.72;5151696;28;20595;-71
2023/04/15 06:19:44;;;;;;;11.05;4.15;;;;;;;8.13;100.00;99847.31;5150531;28;20049;-72
2023/04/15 06:22:14;;;;;;;8.27;4.07;;;;;;;8.19;100.00;99847.13;5151771;28;20019;-72
2023/04/15 06:24:45;;;;;;;6.90;3.80;;;;;;;8.22;100.00;99852.19;5152334;28;20117;-72
2023/04/15 06:27:15;;;;;;;6.55;3.42;;;;;;;8.25;100.00;99857.28;5134863;28;20022;-73
2023/04/15 06:29:46;;;;;;;7.13;4.00;;;;;;;8.15;100.00;99861.13;5151935;28;20488;-73
2023/04/15 06:32:16;;;;;;;7.13;3.85;;;;;;;8.12;100.00;99861.25;5142196;28;20045;-71
2023/04/15 06:34:47;;;;;;;5.30;3.00;;;;;;;8.21;100.00;99871.31;5148653;28;20025;-73
2023/04/15 06:37:17;;;;;;;6.45;3.58;;;;;;;8.24;100.00;99876.41;5146581;28;20077;-71
2023/04/15 06:39:47;;;;;;;6.40;3.15;;;;;;;8.12;100.00;99868.19;5144453;28;20022;-72
2023/04/15 06:42:18;;;;;;;6.03;3.25;;;;;;;8.29;100.00;99874.50;5145200;28;20065;-70
2023/04/15 06:44:48;;;;;;;6.68;3.50;;;;;;;8.23;100.00;99874.72;5141332;28;20030;-70
2023/04/15 06:47:19;;;;;;;7.00;3.30;;;;;;;8.21;100.00;99870.50;5135965;28;20451;-70
2023/04/15 06:49:49;;;;;;;6.55;3.20;;;;;;;8.23;100.00;99868.69;5146634;28;20034;-73
2023/04/15 06:52:20;;;;;;;5.85;3.40;;;;;;;8.32;100.00;99869.19;5149307;28;20489;-72
2023/04/15 06:54:50;;;;;;;5.70;3.45;;;;;;;8.29;100.00;99877.13;5148811;28;20038;-72
2023/04/15 06:57:20;;;;;;;6.15;3.40;;;;;;;8.19;100.00;99875.75;5143385;28;20029;-72
2023/04/15 06:59:53;;;;;;;5.60;3.17;;;;;;;8.27;100.00;99867.66;5153308;28;20500;-73
2023/04/15 07:02:23;;;;;;;5.18;2.80;;;;;;;8.31;100.00;99872.69;5147107;28;20531;-72
2023/04/15 07:04:54;;;;;;;8.18;3.20;;;;;;;8.22;100.00;99869.59;5143906;28;20061;-73
2023/04/15 07:07:25;;;;;;;6.82;3.00;;;;;;;8.29;100.00;99874.50;5144531;28;20049;-71
2023/04/15 07:09:56;;;;;;;6.13;3.28;;;;;;;8.40;100.00;99866.28;5141915;28;20033;-72
2023/04/15 07:12:26;;;;;;;13.73;6.38;;;;;;;8.38;100.00;99873.31;5639674;23;20148;-71
2023/04/15 07:14:56;;;;;;;31.67;11.82;;;;;;;8.39;100.00;99869.81;5127409;28;20035;-72
2023/04/15 07:17:27;;;;;;;19.67;8.52;;;;;;;8.40;100.00;99871.50;5148415;28;20026;-71
2023/04/15 07:19:57;;;;;;;14.98;8.15;;;;;;;8.42;100.00;99865.31;5138015;28;20018;-72
2023/04/15 07:22:28;;;;;;;25.88;11.68;;;;;;;8.44;100.00;99873.94;5147797;28;20635;-71
2023/04/15 07:24:58;;;;;;;11.70;5.28;;;;;;;8.53;100.00;99870.97;5143542;28;20033;-72
2023/04/15 07:27:28;;;;;;;9.43;5.10;;;;;;;8.45;100.00;99867.81;5145618;28;20572;-71
2023/04/15 07:29:58;;;;;;;7.03;4.13;;;;;;;8.50;100.00;99876.28;5142744;28;20065;-71
2023/04/15 07:32:29;;;;;;;6.03;3.67;;;;;;;8.43;100.00;99872.25;5142258;28;20200;-73
2023/04/15 07:34:59;;;;;;;6.53;3.38;;;;;;;8.49;100.00;99873.75;5145690;28;20057;-72
2023/04/15 07:37:30;;;;;;;4.90;2.78;;;;;;;8.47;100.00;99884.22;5146386;28;20050;-73
2023/04/15 07:40:01;;;;;;;4.50;2.63;;;;;;;8.44;100.00;99879.16;5139067;28;20088;-70
2023/04/15 07:42:31;;;;;;;4.38;2.40;;;;;;;8.43;100.00;99880.06;5141094;28;20033;-71
2023/04/15 07:45:02;;;;;;;5.40;3.17;;;;;;;8.52;100.00;99887.50;5137059;28;20030;-72
2023/04/15 07:47:32;;;;;;;4.38;2.40;;;;;;;8.46;100.00;99889.47;5133451;28;20030;-72
2023/04/15 07:50:03;;;;;;;4.68;2.47;;;;;;;8.46;100.00;99890.34;5135747;28;20504;-72
2023/04/15 07:52:38;;;;;;;4.80;2.97;;;;;;;8.52;100.00;99887.50;5135366;28;20027;-72
2023/04/15 07:55:08;;;;;;;6.10;3.00;;;;;;;8.60;100.00;99888.06;5135424;28;20030;-71
2023/04/15 07:57:39;;;;;;;4.25;2.20;;;;;;;8.54;100.00;99885.69;5133397;28;20027;-71
2023/04/15 08:00:10;;;;;;;5.57;2.55;;;;;;;8.65;100.00;99890.47;5136436;28;20049;-71
2023/04/15 08:02:41;;;;;;;5.90;3.45;;;;;;;8.60;100.00;99900.22;5132784;28;20070;-70
2023/04/15 08:05:13;;;;;;;5.55;3.08;;;;;;;8.65;100.00;99901.75;5132737;28;20023;-71
2023/04/15 08:07:44;;;;;;;4.95;2.53;;;;;;;8.67;100.00;99901.69;5131330;28;20117;-73
2023/04/15 08:10:15;;;;;;;4.82;2.97;;;;;;;8.72;100.00;99904.97;5134942;28;20114;-71
2023/04/15 08:12:48;;;;;;;9.00;4.45;;;;;;;8.72;100.00;99898.00;5132504;28;20030;-72
2023/04/15 08:15:19;;;;;;;3.92;2.40;;;;;;;8.75;100.00;99897.88;5132278;28;20027;-72
2023/04/15 08:17:49;;;;;;;7.15;3.80;;;;;;;8.82;100.00;99896.72;5133789;28;20031;-69
2023/04/15 08:20:20;;;;;;;11.85;5.65;;;;;;;8.73;100.00;99907.50;5132248;28;20393;-73
2023/04/15 08:22:51;;;;;;;8.35;4.03;;;;;;;8.81;100.00;99909.81;5135031;28;20023;-71
2023/04/15 08:25:21;;;;;;;14.82;7.43;;;;;;;8.82;100.00;99904.56;5129027;28;20082;-71
2023/04/15 08:27:54;;;;;;;10.38;5.28;;;;;;;8.94;100.00;99911.03;5131962;28;20026;-72
2023/04/15 08:30:25;;;;;;;9.73;4.28;;;;;;;8.98;100.00;99910.84;5129948;28;20039;-70
2023/04/15 08:32:55;;;;;;;4.78;2.55;;;;;;;8.87;100.00;99918.22;5130672;28;20023;-73
2023/04/15 08:35:26;;;;;;;8.43;3.53;;;;;;;8.95;100.00;99915.34;5132202;28;20046;-71
2023/04/15 08:37:56;;;;;;;5.68;2.42;;;;;;;8.83;100.00;99923.63;5127511;28;20507;-74
2023/04/15 08:40:39;;;;;;;10.35;4.28;;;;;;;8.86;100.00;99918.31;5137430;28;20023;-71
2023/04/15 08:43:40;;;;;;;4.57;2.60;;;;;;;8.96;100.00;99928.31;5134588;28;20031;-71
2023/04/15 08:46:12;;;;;;;5.82;3.08;;;;;;;8.80;100.00;99924.59;5131594;28;20097;-69
2023/04/15 08:48:43;;;;;;;10.07;4.82;;;;;;;8.97;100.00;99930.00;5129987;28;20293;-69
2023/04/15 08:51:16;;;;;;;11.70;5.03;;;;;;;8.87;100.00;99931.25;5133419;28;20508;-71
2023/04/15 08:53:46;;;;;;;7.45;3.97;;;;;;;8.89;100.00;99926.84;5131777;28;20031;-72
2023/04/15 08:56:19;;;;;;;6.20;3.63;;;;;;;8.97;100.00;99927.41;5134684;28;20030;-73
2023/04/15 08:58:49;;;;;;;12.75;5.93;;;;;;;9.06;100.00;99927.03;5130388;28;20030;-73
2023/04/15 09:01:20;;;;;;;9.75;4.80;;;;;;;9.03;100.00;99937.56;5135092;28;20037;-69
2023/04/15 09:03:53;;;;;;;10.75;5.32;;;;;;;9.09;100.00;99932.09;5137600;28;20478;-70
2023/04/15 09:06:24;;;;;;;10.23;4.93;;;;;;;9.00;100.00;99929.88;5126044;28;20050;-74
2023/04/15 09:08:55;;;;;;;11.05;5.60;;;;;;;9.09;100.00;99932.09;5135554;28;20098;-73
2023/04/15 09:11:25;;;;;;;12.38;5.78;;;;;;;9.09;100.00;99932.09;5131127;28;20080;-72
2023/04/15 09:13:56;;;;;;;11.20;5.38;;;;;;;9.06;100.00;99927.03;5136317;28;20499;-72
2023/04/15 09:16:27;;;;;;;14.10;7.13;;;;;;;9.06;100.00;99932.22;5130191;28;20061;-71
2023/04/15 09:18:57;;;;;;;12.95;6.03;;;;;;;9.18;100.00;99934.38;5135670;28;20034;-74
2023/04/15 09:21:30;;;;;;;15.20;7.05;;;;;;;9.08;100.00;99926.97;5143903;28;20050;-72
2023/04/15 09:24:02;;;;;;;14.27;6.07;;;;;;;9.11;100.00;99940.75;5140451;28;20092;-70
2023/04/15 09:26:35;;;;;;;15.50;7.05;;;;;;;9.05;100.00;99934.91;5145740;28;20034;-73
2023/04/15 09:29:07;;;;;;;16.38;8.15;;;;;;;9.12;100.00;99942.44;5142612;28;20030;-71
2023/04/15 09:31:37;;;;;;;18.25;8.13;;;;;;;9.11;100.00;99945.97;5137986;28;20047;-74
2023/04/15 09:34:08;;;;;;;16.35;7.50;;;;;;;9.20;100.00;99940.34;5126796;28;20038;-72
2023/04/15 09:36:48;;;;;;;17.98;7.63;;;;;;;9.25;100.00;99941.00;5128181;28;20505;-73
2023/04/15 09:39:20;;;;;;;18.50;7.88;;;;;;;9.27;100.00;99947.00;5131919;28;20029;-72
2023/04/15 09:42:06;;;;;;;15.55;7.53;;;;;;;9.32;100.00;99945.09;5132594;28;20046;-73
2023/04/15 09:44:36;;;;;;;20.77;8.20;;;;;;;9.36;100.00;99946.66;5131924;28;20069;-72
2023/04/15 09:47:07;;;;;;;18.33;8.00;;;;;;;9.37;100.00;99954.44;5129113;28;20153;-73
2023/04/15 09:49:37;;;;;;;18.35;9.02;;;;;;;9.35;100.00;99958.00;5129527;28;20023;-71
2023/04/15 09:52:08;;;;;;;19.20;8.70;;;;;;;9.37;100.00;99953.56;5129919;28;20034;-69
2023/04/15 09:54:38;;;;;;;19.13;8.98;;;;;;;9.38;100.00;99960.47;5131078;28;20018;-71
2023/04/15 09:57:08;;;;;;;20.08;8.75;;;;;;;9.36;100.00;99949.25;5131092;28;20026;-73
2023/04/15 09:59:39;;;;;;;20.38;9.30;;;;;;;9.30;100.00;99954.75;5128217;28;20023;-74
2023/04/15 10:02:11;;;;;;;22.08;9.23;;;;;;;9.29;100.00;99953.03;5132117;28;20388;-71
2023/04/15 10:04:43;;;;;;;21.67;9.15;;;;;;;9.29;100.00;99963.47;5135016;28;20053;-71
2023/04/15 10:07:14;;;;;;;21.17;9.77;;;;;;;9.39;100.00;99963.03;5131306;28;20323;-69
2023/04/15 10:09:45;;;;;;;20.83;9.43;;;;;;;9.33;100.00;99957.22;5127909;28;20403;-72
2023/04/15 10:12:17;;;;;;;22.20;9.20;;;;;;;9.34;100.00;99953.69;5131180;28;20110;-72
2023/04/15 10:14:52;;;;;;;21.98;10.02;;;;;;;9.49;100.00;99960.91;5133527;28;20405;-70
2023/04/15 10:17:32;;;;;;;27.38;11.25;;;;;;;9.45;100.00;99964.56;5126501;28;20057;-69
2023/04/15 10:20:04;;;;;;;22.83;10.00;;;;;;;9.42;100.00;99955.06;5128217;28;20072;-70
2023/04/15 10:22:35;;;;;;;22.00;9.50;;;;;;;9.30;100.00;99957.34;5132967;28;20121;-72
2023/04/15 10:25:06;;;;;;;25.75;10.05;;;;;;;9.37;100.00;99959.66;5130676;28;20457;-71
2023/04/15 10:27:39;;;;;;;28.35;12.70;;;;;;;9.44;100.00;99961.06;5129448;28;20027;-73
2023/04/15 10:30:11;;;;;;;28.38;12.10;;;;;;;9.39;100.00;99973.47;5132237;28;20045;-73
2023/04/15 10:32:42;;;;;;;23.05;11.02;;;;;;;9.44;100.00;99975.88;5129912;28;20393;-70
2023/04/15 10:35:12;;;;;;;22.35;10.02;;;;;;;9.50;100.00;99979.06;5127105;28;20378;-73
2023/04/15 10:37:43;;;;;;;22.52;9.85;;;;;;;9.47;100.00;99975.75;5129969;28;20081;-72
2023/04/15 10:40:33;;;;;;;19.75;9.60;;;;;;;9.49;100.00;99979.97;5131206;28;20066;-72
2023/04/15 10:43:04;;;;;;;20.38;9.57;;;;;;;9.48;100.00;99987.88;5131217;28;20062;-72
2023/04/15 10:45:35;;;;;;;20.08;9.45;;;;;;;9.49;100.00;99979.97;5125439;28;20382;-70
2023/04/15 10:48:07;;;;;;;26.65;10.98;;;;;;;9.55;100.00;99984.09;5130195;28;20046;-71
2023/04/15 10:50:38;;;;;;;26.35;11.02;;;;;;;9.65;100.00;99988.88;5133136;28;20440;-70
2023/04/15 10:53:10;;;;;;;22.05;10.02;;;;;;;9.60;100.00;99992.59;5135687;28;20034;-73
2023/04/15 10:55:40;;;;;;;23.98;10.10;;;;;;;9.70;100.00;99986.09;5130673;28;20046;-73
2023/04/15 10:58:11;;;;;;;22.98;10.20;;;;;;;9.58;100.00;99999.63;5144071;28;20042;-75
2023/04/15 11:00:49;;;;;;;21.52;10.25;;;;;;;9.68;100.00;100000.97;5144320;28;20041;-69
2023/04/15 11:03:37;;;;;;;26.35;11.15;;;;;;;9.70;100.00;100000.00;5135053;28;20451;-72
2023/04/15 11:06:08;;;;;;;24.42;10.00;;;;;;;9.63;100.00;100013.34;5129732;28;20043;-69
2023/04/15 11:09:04;;;;;;;23.08;11.45;;;;;;;9.61;100.00;100016.00;5136134;28;20027;-71
2023/04/15 11:12:13;;;;;;;;;;;;;;;9.58;100.00;100015.28;5138963;28;20041;-74
2023/04/15 11:14:45;;;;;;;24.02;11.35;;;;;;;9.56;100.00;100024.94;5056913;29;19915;-71
2023/04/15 11:17:27;;;;;;;26.52;11.15;;;;;;;9.60;100.00;100034.31;5061546;29;20522;-70
2023/04/15 11:19:57;;;;;;;25.35;11.43;;;;;;;9.62;100.00;100024.72;5106860;28;20062;-71
2023/04/15 11:22:28;;;;;;;24.17;11.48;;;;;;;9.60;100.00;100029.97;5136702;28;20158;-73
2023/04/15 11:24:58;;;;;;;25.08;11.23;;;;;;;9.61;100.00;100030.81;5132208;28;20138;-71
2023/04/15 11:27:29;;;;;;;22.20;10.95;;;;;;;9.67;100.00;100043.63;5128111;28;20038;-73
2023/04/15 11:30:00;;;;;;;25.52;11.75;;;;;;;9.65;100.00;100037.63;5134013;28;20019;-72
2023/04/15 11:32:30;;;;;;;24.05;11.15;;;;;;;9.62;100.00;100046.41;5118412;28;20101;-71
2023/04/15 11:35:01;;;;;;;26.17;12.15;;;;;;;9.62;100.00;100042.97;5127159;28;20035;-71
2023/04/15 11:37:31;;;;;;;30.58;11.82;;;;;;;9.68;100.00;100034.88;5133370;28;20041;-72
2023/04/15 11:40:02;;;;;;;25.27;11.70;;;;;;;9.69;100.00;100045.25;5135404;28;20058;-71
2023/04/15 11:42:32;;;;;;;28.73;12.40;;;;;;;9.62;100.00;100048.19;5137365;28;20412;-72
2023/04/15 11:45:14;;;;;;;26.70;12.32;;;;;;;9.61;100.00;100041.25;5132940;28;20037;-72
2023/04/15 11:47:44;;;;;;;27.50;12.30;;;;;;;9.68;100.00;100053.16;5126947;28;20504;-72